sensor_id;sensor_type;location;lat;lon;timestamp;temperature;humidity
18998;DHT22;9632;51.018;4.284;2022-10-17T00:01:02;17.00;99.90
18998;DHT22;9632;51.018;4.284;2022-10-17T00:03:28;17.00;99.90
18998;DHT22;9632;51.018;4.284;2022-10-17T00:05:54;17.00;99.90
18998;DHT22;9632;51.018;4.284;2022-10-17T00:08:19;17.00;99.90
18998;DHT22;9632;51.018;4.284;2022-10-17T00:10:54;17.00;99.90
18998;DHT22;9632;51.018;4.284;2022-10-17T00:13:20;17.00;99.90
18998;DHT22;9632;51.018;4.284;2022-10-17T00:15:46;17.00;99.90
18998;DHT22;9632;51.018;4.284;2022-10-17T00:18:11;17.00;99.90
18998;DHT22;9632;51.018;4.284;2022-10-17T00:20:37;17.00;99.90
18998;DHT22;9632;51.018;4.284;2022-10-17T00:23:03;17.00;99.90
18998;DHT22;9632;51.018;4.284;2022-10-17T00:25:28;17.00;99.90
18998;DHT22;9632;51.018;4.284;2022-10-17T00:27:54;17.00;99.90
18998;DHT22;9632;51.018;4.284;2022-10-17T00:30:20;17.00;99.90
18998;DHT22;9632;51.018;4.284;2022-10-17T00:32:45;17.00;99.90
18998;DHT22;9632;51.018;4.284;2022-10-17T00:35:11;17.00;99.90
18998;DHT22;9632;51.018;4.284;2022-10-17T00:37:37;17.00;99.90
18998;DHT22;9632;51.018;4.284;2022-10-17T00:40:04;16.90;99.90
18998;DHT22;9632;51.018;4.284;2022-10-17T00:42:30;16.80;99.90
18998;DHT22;9632;51.018;4.284;2022-10-17T00:45:00;16.80;99.90
18998;DHT22;9632;51.018;4.284;2022-10-17T00:47:28;16.80;99.90
18998;DHT22;9632;51.018;4.284;2022-10-17T00:49:54;16.80;99.90
18998;DHT22;9632;51.018;4.284;2022-10-17T00:52:24;16.80;99.90
18998;DHT22;9632;51.018;4.284;2022-10-17T00:57:37;16.80;99.90
18998;DHT22;9632;51.018;4.284;2022-10-17T01:00:06;16.80;99.90
18998;DHT22;9632;51.018;4.284;2022-10-17T01:02:33;16.80;99.90
18998;DHT22;9632;51.018;4.284;2022-10-17T01:04:59;16.80;99.90
18998;DHT22;9632;51.018;4.284;2022-10-17T01:07:26;16.80;99.90
18998;DHT22;9632;51.018;4.284;2022-10-17T01:09:53;16.70;99.90
18998;DHT22;9632;51.018;4.284;2022-10-17T01:26:30;16.50;99.90
18998;DHT22;9632;51.018;4.284;2022-10-17T01:34:33;16.70;99.90
18998;DHT22;9632;51.018;4.284;2022-10-17T01:42:25;16.80;99.90
18998;DHT22;9632;51.018;4.284;2022-10-17T01:47:41;16.80;99.90
18998;DHT22;9632;51.018;4.284;2022-10-17T01:50:15;16.80;99.90
18998;DHT22;9632;51.018;4.284;2022-10-17T01:53:01;16.70;99.90
18998;DHT22;9632;51.018;4.284;2022-10-17T01:55:31;16.80;99.90
18998;DHT22;9632;51.018;4.284;2022-10-17T01:58:06;16.80;99.90
18998;DHT22;9632;51.018;4.284;2022-10-17T02:00:34;16.80;99.90
18998;DHT22;9632;51.018;4.284;2022-10-17T02:03:06;16.80;99.90
18998;DHT22;9632;51.018;4.284;2022-10-17T02:05:38;16.80;99.90
18998;DHT22;9632;51.018;4.284;2022-10-17T02:08:05;16.80;99.90
18998;DHT22;9632;51.018;4.284;2022-10-17T02:10:50;16.90;99.90
18998;DHT22;9632;51.018;4.284;2022-10-17T02:19:01;17.00;99.90
18998;DHT22;9632;51.018;4.284;2022-10-17T02:24:32;17.00;99.90
18998;DHT22;9632;51.018;4.284;2022-10-17T02:28:09;17.10;99.90
18998;DHT22;9632;51.018;4.284;2022-10-17T02:30:10;17.20;99.90
18998;DHT22;9632;51.018;4.284;2022-10-17T02:32:48;17.20;99.90
18998;DHT22;9632;51.018;4.284;2022-10-17T02:35:19;17.30;99.90
18998;DHT22;9632;51.018;4.284;2022-10-17T02:37:46;17.30;99.90
18998;DHT22;9632;51.018;4.284;2022-10-17T02:40:13;17.40;99.90
18998;DHT22;9632;51.018;4.284;2022-10-17T02:42:40;17.50;99.90
18998;DHT22;9632;51.018;4.284;2022-10-17T02:45:08;17.50;99.90
18998;DHT22;9632;51.018;4.284;2022-10-17T02:47:41;17.60;99.90
18998;DHT22;9632;51.018;4.284;2022-10-17T02:50:08;17.70;99.90
18998;DHT22;9632;51.018;4.284;2022-10-17T02:52:39;17.70;99.90
18998;DHT22;9632;51.018;4.284;2022-10-17T02:55:18;17.70;99.90
18998;DHT22;9632;51.018;4.284;2022-10-17T02:57:51;17.80;99.90
18998;DHT22;9632;51.018;4.284;2022-10-17T03:00:19;17.90;99.90
18998;DHT22;9632;51.018;4.284;2022-10-17T03:02:48;18.00;99.90
18998;DHT22;9632;51.018;4.284;2022-10-17T03:05:19;18.00;99.90
18998;DHT22;9632;51.018;4.284;2022-10-17T03:07:45;18.00;99.90
18998;DHT22;9632;51.018;4.284;2022-10-17T03:10:10;18.10;99.90
18998;DHT22;9632;51.018;4.284;2022-10-17T03:12:37;18.20;99.90
18998;DHT22;9632;51.018;4.284;2022-10-17T03:15:03;18.20;99.90
18998;DHT22;9632;51.018;4.284;2022-10-17T03:17:30;18.30;99.90
18998;DHT22;9632;51.018;4.284;2022-10-17T03:19:55;18.30;99.90
18998;DHT22;9632;51.018;4.284;2022-10-17T03:22:21;18.30;99.90
18998;DHT22;9632;51.018;4.284;2022-10-17T03:24:46;18.30;99.90
18998;DHT22;9632;51.018;4.284;2022-10-17T03:27:12;18.40;99.90
18998;DHT22;9632;51.018;4.284;2022-10-17T03:29:38;18.40;99.90
18998;DHT22;9632;51.018;4.284;2022-10-17T03:32:03;18.50;99.90
18998;DHT22;9632;51.018;4.284;2022-10-17T03:34:29;18.50;99.90
18998;DHT22;9632;51.018;4.284;2022-10-17T03:36:55;18.60;99.90
18998;DHT22;9632;51.018;4.284;2022-10-17T03:39:20;18.60;99.90
18998;DHT22;9632;51.018;4.284;2022-10-17T03:41:46;18.60;99.90
18998;DHT22;9632;51.018;4.284;2022-10-17T03:44:11;18.60;99.90
18998;DHT22;9632;51.018;4.284;2022-10-17T03:46:37;18.70;99.90
18998;DHT22;9632;51.018;4.284;2022-10-17T03:49:03;18.80;99.90
18998;DHT22;9632;51.018;4.284;2022-10-17T03:51:28;18.80;99.90
18998;DHT22;9632;51.018;4.284;2022-10-17T03:53:54;18.80;99.90
18998;DHT22;9632;51.018;4.284;2022-10-17T03:56:21;18.80;99.90
18998;DHT22;9632;51.018;4.284;2022-10-17T03:58:48;18.90;99.90
18998;DHT22;9632;51.018;4.284;2022-10-17T04:01:15;18.90;99.90
18998;DHT22;9632;51.018;4.284;2022-10-17T04:03:41;18.90;99.90
18998;DHT22;9632;51.018;4.284;2022-10-17T04:06:07;18.90;99.90
18998;DHT22;9632;51.018;4.284;2022-10-17T04:08:35;19.00;99.90
18998;DHT22;9632;51.018;4.284;2022-10-17T04:11:02;18.90;99.90
18998;DHT22;9632;51.018;4.284;2022-10-17T04:13:28;18.90;99.90
18998;DHT22;9632;51.018;4.284;2022-10-17T04:15:59;18.90;99.90
18998;DHT22;9632;51.018;4.284;2022-10-17T04:18:25;19.00;99.90
18998;DHT22;9632;51.018;4.284;2022-10-17T04:20:51;19.10;99.90
18998;DHT22;9632;51.018;4.284;2022-10-17T04:23:17;19.10;99.90
18998;DHT22;9632;51.018;4.284;2022-10-17T04:25:43;19.10;99.90
18998;DHT22;9632;51.018;4.284;2022-10-17T04:28:08;19.10;99.90
18998;DHT22;9632;51.018;4.284;2022-10-17T04:30:34;19.20;99.90
18998;DHT22;9632;51.018;4.284;2022-10-17T04:33:00;19.20;99.90
18998;DHT22;9632;51.018;4.284;2022-10-17T04:35:25;19.20;99.90
18998;DHT22;9632;51.018;4.284;2022-10-17T04:37:51;19.20;99.90
18998;DHT22;9632;51.018;4.284;2022-10-17T04:40:16;19.20;99.90
18998;DHT22;9632;51.018;4.284;2022-10-17T04:42:42;19.20;99.90
18998;DHT22;9632;51.018;4.284;2022-10-17T04:45:08;19.20;99.90
18998;DHT22;9632;51.018;4.284;2022-10-17T04:47:34;19.20;99.90
18998;DHT22;9632;51.018;4.284;2022-10-17T04:50:00;19.10;99.90
18998;DHT22;9632;51.018;4.284;2022-10-17T04:52:25;19.10;99.90
18998;DHT22;9632;51.018;4.284;2022-10-17T04:54:51;19.10;99.90
18998;DHT22;9632;51.018;4.284;2022-10-17T04:57:17;19.00;99.90
18998;DHT22;9632;51.018;4.284;2022-10-17T04:59:44;19.00;99.90
18998;DHT22;9632;51.018;4.284;2022-10-17T05:02:10;19.10;99.90
18998;DHT22;9632;51.018;4.284;2022-10-17T05:04:35;19.00;99.90
18998;DHT22;9632;51.018;4.284;2022-10-17T05:07:01;19.10;99.90
18998;DHT22;9632;51.018;4.284;2022-10-17T05:09:27;19.10;99.90
18998;DHT22;9632;51.018;4.284;2022-10-17T05:11:53;19.00;99.90
18998;DHT22;9632;51.018;4.284;2022-10-17T05:14:18;19.00;99.90
18998;DHT22;9632;51.018;4.284;2022-10-17T05:16:44;19.00;99.90
18998;DHT22;9632;51.018;4.284;2022-10-17T05:19:10;19.00;99.90
18998;DHT22;9632;51.018;4.284;2022-10-17T05:21:36;19.00;99.90
18998;DHT22;9632;51.018;4.284;2022-10-17T05:24:05;18.90;99.90
18998;DHT22;9632;51.018;4.284;2022-10-17T05:26:31;18.90;99.90
18998;DHT22;9632;51.018;4.284;2022-10-17T05:28:56;18.90;99.90
18998;DHT22;9632;51.018;4.284;2022-10-17T05:31:24;18.90;99.90
18998;DHT22;9632;51.018;4.284;2022-10-17T05:33:50;18.90;99.90
18998;DHT22;9632;51.018;4.284;2022-10-17T05:36:16;18.90;99.90
18998;DHT22;9632;51.018;4.284;2022-10-17T05:38:41;19.00;99.90
18998;DHT22;9632;51.018;4.284;2022-10-17T05:41:09;18.90;99.90
18998;DHT22;9632;51.018;4.284;2022-10-17T05:43:34;18.90;99.90
18998;DHT22;9632;51.018;4.284;2022-10-17T05:46:06;19.00;99.90
18998;DHT22;9632;51.018;4.284;2022-10-17T05:48:32;19.00;99.90
18998;DHT22;9632;51.018;4.284;2022-10-17T05:51:03;19.10;99.90
18998;DHT22;9632;51.018;4.284;2022-10-17T05:53:30;19.00;99.90
18998;DHT22;9632;51.018;4.284;2022-10-17T05:55:58;19.00;99.90
18998;DHT22;9632;51.018;4.284;2022-10-17T05:58:24;19.00;99.90
18998;DHT22;9632;51.018;4.284;2022-10-17T06:00:50;19.00;99.90
18998;DHT22;9632;51.018;4.284;2022-10-17T06:03:15;19.00;99.90
18998;DHT22;9632;51.018;4.284;2022-10-17T06:05:41;19.00;99.90
18998;DHT22;9632;51.018;4.284;2022-10-17T06:08:07;19.00;99.90
18998;DHT22;9632;51.018;4.284;2022-10-17T06:10:32;19.10;99.90
18998;DHT22;9632;51.018;4.284;2022-10-17T06:12:58;19.20;99.90
18998;DHT22;9632;51.018;4.284;2022-10-17T06:15:23;19.10;99.90
18998;DHT22;9632;51.018;4.284;2022-10-17T06:17:49;19.00;99.90
18998;DHT22;9632;51.018;4.284;2022-10-17T06:20:15;19.00;99.90
18998;DHT22;9632;51.018;4.284;2022-10-17T06:22:40;19.10;99.90
18998;DHT22;9632;51.018;4.284;2022-10-17T06:25:06;19.10;99.90
18998;DHT22;9632;51.018;4.284;2022-10-17T06:27:32;19.10;99.90
18998;DHT22;9632;51.018;4.284;2022-10-17T06:29:57;19.20;99.90
18998;DHT22;9632;51.018;4.284;2022-10-17T06:32:23;19.10;99.90
18998;DHT22;9632;51.018;4.284;2022-10-17T06:34:48;19.10;99.90
18998;DHT22;9632;51.018;4.284;2022-10-17T06:37:14;19.20;99.90
18998;DHT22;9632;51.018;4.284;2022-10-17T06:39:40;19.20;99.90
18998;DHT22;9632;51.018;4.284;2022-10-17T06:42:05;19.20;99.90
18998;DHT22;9632;51.018;4.284;2022-10-17T06:44:31;19.20;99.90
18998;DHT22;9632;51.018;4.284;2022-10-17T06:46:58;19.20;99.90
18998;DHT22;9632;51.018;4.284;2022-10-17T06:49:24;19.20;99.90
18998;DHT22;9632;51.018;4.284;2022-10-17T06:51:49;19.10;99.90
18998;DHT22;9632;51.018;4.284;2022-10-17T06:54:15;19.20;99.90
18998;DHT22;9632;51.018;4.284;2022-10-17T06:56:41;19.20;99.90
18998;DHT22;9632;51.018;4.284;2022-10-17T06:59:08;19.10;99.90
18998;DHT22;9632;51.018;4.284;2022-10-17T07:01:34;19.10;99.90
18998;DHT22;9632;51.018;4.284;2022-10-17T07:04:00;19.00;99.90
18998;DHT22;9632;51.018;4.284;2022-10-17T07:06:25;19.00;99.90
18998;DHT22;9632;51.018;4.284;2022-10-17T07:08:51;19.00;99.90
18998;DHT22;9632;51.018;4.284;2022-10-17T07:11:19;18.90;99.90
18998;DHT22;9632;51.018;4.284;2022-10-17T07:13:45;18.90;99.90
18998;DHT22;9632;51.018;4.284;2022-10-17T07:16:11;19.00;99.90
18998;DHT22;9632;51.018;4.284;2022-10-17T07:18:37;19.00;99.90
18998;DHT22;9632;51.018;4.284;2022-10-17T07:21:03;19.00;99.90
18998;DHT22;9632;51.018;4.284;2022-10-17T07:23:29;18.80;99.90
18998;DHT22;9632;51.018;4.284;2022-10-17T07:26:04;18.80;99.90
18998;DHT22;9632;51.018;4.284;2022-10-17T07:28:40;18.80;99.90
18998;DHT22;9632;51.018;4.284;2022-10-17T07:31:09;18.80;99.90
18998;DHT22;9632;51.018;4.284;2022-10-17T07:33:35;18.80;99.90
18998;DHT22;9632;51.018;4.284;2022-10-17T07:36:01;18.80;99.90
18998;DHT22;9632;51.018;4.284;2022-10-17T07:38:27;18.80;99.90
18998;DHT22;9632;51.018;4.284;2022-10-17T07:40:55;18.70;99.90
18998;DHT22;9632;51.018;4.284;2022-10-17T07:43:21;18.70;99.90
18998;DHT22;9632;51.018;4.284;2022-10-17T07:45:47;18.80;99.90
18998;DHT22;9632;51.018;4.284;2022-10-17T07:48:12;18.70;99.90
18998;DHT22;9632;51.018;4.284;2022-10-17T07:50:38;18.70;99.90
18998;DHT22;9632;51.018;4.284;2022-10-17T07:53:04;18.60;99.90
18998;DHT22;9632;51.018;4.284;2022-10-17T07:55:29;18.60;99.90
18998;DHT22;9632;51.018;4.284;2022-10-17T07:57:56;18.60;99.90
18998;DHT22;9632;51.018;4.284;2022-10-17T08:00:22;18.70;99.90
18998;DHT22;9632;51.018;4.284;2022-10-17T08:02:47;18.70;99.90
18998;DHT22;9632;51.018;4.284;2022-10-17T08:05:13;18.70;99.90
18998;DHT22;9632;51.018;4.284;2022-10-17T08:07:39;18.60;99.90
18998;DHT22;9632;51.018;4.284;2022-10-17T08:10:06;18.60;99.90
18998;DHT22;9632;51.018;4.284;2022-10-17T08:12:32;18.60;99.90
18998;DHT22;9632;51.018;4.284;2022-10-17T08:14:59;18.60;99.90
18998;DHT22;9632;51.018;4.284;2022-10-17T08:17:25;18.60;99.90
18998;DHT22;9632;51.018;4.284;2022-10-17T08:19:51;18.60;99.90
18998;DHT22;9632;51.018;4.284;2022-10-17T08:22:17;18.60;99.90
18998;DHT22;9632;51.018;4.284;2022-10-17T08:24:42;18.60;99.90
18998;DHT22;9632;51.018;4.284;2022-10-17T08:27:09;18.60;99.90
18998;DHT22;9632;51.018;4.284;2022-10-17T08:29:36;18.50;99.90
18998;DHT22;9632;51.018;4.284;2022-10-17T08:32:02;18.50;99.90
18998;DHT22;9632;51.018;4.284;2022-10-17T08:34:27;18.40;99.90
18998;DHT22;9632;51.018;4.284;2022-10-17T08:36:53;18.40;99.90
18998;DHT22;9632;51.018;4.284;2022-10-17T08:39:19;18.40;99.90
18998;DHT22;9632;51.018;4.284;2022-10-17T08:41:57;18.40;99.90
18998;DHT22;9632;51.018;4.284;2022-10-17T08:45:28;18.50;99.90
18998;DHT22;9632;51.018;4.284;2022-10-17T08:47:38;18.50;99.90
18998;DHT22;9632;51.018;4.284;2022-10-17T08:50:06;18.60;99.90
18998;DHT22;9632;51.018;4.284;2022-10-17T08:52:53;18.60;99.90
18998;DHT22;9632;51.018;4.284;2022-10-17T08:55:35;18.50;99.90
18998;DHT22;9632;51.018;4.284;2022-10-17T08:58:01;18.50;99.90
18998;DHT22;9632;51.018;4.284;2022-10-17T09:00:28;18.60;99.90
18998;DHT22;9632;51.018;4.284;2022-10-17T09:03:33;18.50;99.90
18998;DHT22;9632;51.018;4.284;2022-10-17T09:14:16;18.80;99.90
18998;DHT22;9632;51.018;4.284;2022-10-17T09:17:11;18.80;99.90
18998;DHT22;9632;51.018;4.284;2022-10-17T09:19:44;18.80;99.90
18998;DHT22;9632;51.018;4.284;2022-10-17T09:22:23;18.90;99.90
18998;DHT22;9632;51.018;4.284;2022-10-17T09:24:52;18.90;99.90
18998;DHT22;9632;51.018;4.284;2022-10-17T09:27:25;18.90;99.90
18998;DHT22;9632;51.018;4.284;2022-10-17T09:32:36;19.00;99.90
18998;DHT22;9632;51.018;4.284;2022-10-17T09:35:02;19.00;99.90
18998;DHT22;9632;51.018;4.284;2022-10-17T09:37:30;19.00;99.90
18998;DHT22;9632;51.018;4.284;2022-10-17T09:39:57;18.90;99.90
18998;DHT22;9632;51.018;4.284;2022-10-17T09:42:25;18.90;99.90
18998;DHT22;9632;51.018;4.284;2022-10-17T09:45:20;18.90;99.90
18998;DHT22;9632;51.018;4.284;2022-10-17T09:48:17;18.90;99.90
18998;DHT22;9632;51.018;4.284;2022-10-17T09:50:46;19.00;99.90
18998;DHT22;9632;51.018;4.284;2022-10-17T09:53:15;19.10;99.90
18998;DHT22;9632;51.018;4.284;2022-10-17T09:55:50;19.10;99.90
18998;DHT22;9632;51.018;4.284;2022-10-17T09:58:16;19.20;99.90
18998;DHT22;9632;51.018;4.284;2022-10-17T10:00:45;19.10;99.90
18998;DHT22;9632;51.018;4.284;2022-10-17T10:05:38;19.30;99.90
18998;DHT22;9632;51.018;4.284;2022-10-17T10:08:15;19.30;99.90
18998;DHT22;9632;51.018;4.284;2022-10-17T10:10:42;19.30;99.90
18998;DHT22;9632;51.018;4.284;2022-10-17T10:13:17;19.30;99.90
18998;DHT22;9632;51.018;4.284;2022-10-17T10:15:49;19.30;99.90
18998;DHT22;9632;51.018;4.284;2022-10-17T10:21:13;19.40;99.90
18998;DHT22;9632;51.018;4.284;2022-10-17T10:23:43;19.50;99.90
18998;DHT22;9632;51.018;4.284;2022-10-17T10:26:25;19.50;99.90
18998;DHT22;9632;51.018;4.284;2022-10-17T10:28:57;19.40;99.90
18998;DHT22;9632;51.018;4.284;2022-10-17T10:31:36;19.40;99.90
18998;DHT22;9632;51.018;4.284;2022-10-17T10:34:33;19.50;99.90
18998;DHT22;9632;51.018;4.284;2022-10-17T10:37:17;19.50;99.90
18998;DHT22;9632;51.018;4.284;2022-10-17T10:39:47;19.50;99.90
18998;DHT22;9632;51.018;4.284;2022-10-17T10:42:35;19.60;99.90
18998;DHT22;9632;51.018;4.284;2022-10-17T10:47:56;19.60;99.90
18998;DHT22;9632;51.018;4.284;2022-10-17T10:50:43;19.60;99.90
18998;DHT22;9632;51.018;4.284;2022-10-17T10:56:36;19.60;99.90
18998;DHT22;9632;51.018;4.284;2022-10-17T10:59:16;19.60;99.90
18998;DHT22;9632;51.018;4.284;2022-10-17T11:07:26;19.60;99.90
18998;DHT22;9632;51.018;4.284;2022-10-17T11:12:56;19.60;99.90
18998;DHT22;9632;51.018;4.284;2022-10-17T11:15:34;19.60;99.90
18998;DHT22;9632;51.018;4.284;2022-10-17T11:20:57;19.60;99.90
18998;DHT22;9632;51.018;4.284;2022-10-17T11:23:46;19.50;99.90
18998;DHT22;9632;51.018;4.284;2022-10-17T11:26:18;19.50;99.90
18998;DHT22;9632;51.018;4.284;2022-10-17T11:28:53;19.50;99.90
18998;DHT22;9632;51.018;4.284;2022-10-17T11:31:21;19.40;99.90
18998;DHT22;9632;51.018;4.284;2022-10-17T11:33:57;19.40;99.90
18998;DHT22;9632;51.018;4.284;2022-10-17T11:36:31;19.40;99.90
18998;DHT22;9632;51.018;4.284;2022-10-17T11:39:06;19.50;99.90
18998;DHT22;9632;51.018;4.284;2022-10-17T11:41:47;19.50;99.90
18998;DHT22;9632;51.018;4.284;2022-10-17T11:44:35;19.50;99.90
18998;DHT22;9632;51.018;4.284;2022-10-17T11:49:52;19.60;99.90
18998;DHT22;9632;51.018;4.284;2022-10-17T11:55:28;19.70;99.90
18998;DHT22;9632;51.018;4.284;2022-10-17T11:58:46;19.70;99.90
18998;DHT22;9632;51.018;4.284;2022-10-17T12:04:06;19.80;99.90
18998;DHT22;9632;51.018;4.284;2022-10-17T12:12:27;20.00;99.90
18998;DHT22;9632;51.018;4.284;2022-10-17T12:14:53;20.00;99.90
18998;DHT22;9632;51.018;4.284;2022-10-17T12:17:32;20.00;99.90
18998;DHT22;9632;51.018;4.284;2022-10-17T12:22:49;20.00;99.90
18998;DHT22;9632;51.018;4.284;2022-10-17T12:25:27;20.10;99.90
18998;DHT22;9632;51.018;4.284;2022-10-17T12:28:10;20.00;99.90
18998;DHT22;9632;51.018;4.284;2022-10-17T12:31:06;19.90;99.90
18998;DHT22;9632;51.018;4.284;2022-10-17T12:57:41;19.90;99.90
18998;DHT22;9632;51.018;4.284;2022-10-17T13:00:21;19.90;99.90
18998;DHT22;9632;51.018;4.284;2022-10-17T13:02:50;19.90;99.90
18998;DHT22;9632;51.018;4.284;2022-10-17T13:05:31;19.90;99.90
18998;DHT22;9632;51.018;4.284;2022-10-17T13:08:01;19.90;99.90
18998;DHT22;9632;51.018;4.284;2022-10-17T13:10:30;19.90;99.90
18998;DHT22;9632;51.018;4.284;2022-10-17T13:15:36;20.00;99.90
18998;DHT22;9632;51.018;4.284;2022-10-17T13:18:02;20.00;99.90
18998;DHT22;9632;51.018;4.284;2022-10-17T13:20:30;20.10;99.90
18998;DHT22;9632;51.018;4.284;2022-10-17T13:22:57;20.10;99.90
18998;DHT22;9632;51.018;4.284;2022-10-17T13:25:24;20.10;99.90
18998;DHT22;9632;51.018;4.284;2022-10-17T13:27:58;20.10;99.90
18998;DHT22;9632;51.018;4.284;2022-10-17T13:30:34;20.20;99.90
18998;DHT22;9632;51.018;4.284;2022-10-17T13:33:01;20.20;99.90
18998;DHT22;9632;51.018;4.284;2022-10-17T13:35:34;20.30;99.90
18998;DHT22;9632;51.018;4.284;2022-10-17T13:38:01;20.30;99.90
18998;DHT22;9632;51.018;4.284;2022-10-17T13:40:30;20.30;99.90
18998;DHT22;9632;51.018;4.284;2022-10-17T13:42:57;20.30;99.90
18998;DHT22;9632;51.018;4.284;2022-10-17T13:48:00;20.40;99.90
18998;DHT22;9632;51.018;4.284;2022-10-17T13:50:35;20.30;99.90
18998;DHT22;9632;51.018;4.284;2022-10-17T13:53:17;20.30;99.90
18998;DHT22;9632;51.018;4.284;2022-10-17T13:56:22;20.30;99.90
18998;DHT22;9632;51.018;4.284;2022-10-17T13:58:58;20.20;99.90
18998;DHT22;9632;51.018;4.284;2022-10-17T14:01:26;20.20;99.90
18998;DHT22;9632;51.018;4.284;2022-10-17T14:03:53;20.20;99.90
18998;DHT22;9632;51.018;4.284;2022-10-17T14:06:23;20.20;99.90
18998;DHT22;9632;51.018;4.284;2022-10-17T14:09:02;20.30;99.90
18998;DHT22;9632;51.018;4.284;2022-10-17T14:11:41;20.20;99.90
18998;DHT22;9632;51.018;4.284;2022-10-17T14:14:22;20.20;99.90
18998;DHT22;9632;51.018;4.284;2022-10-17T14:16:50;20.20;99.90
18998;DHT22;9632;51.018;4.284;2022-10-17T14:19:29;20.30;99.90
18998;DHT22;9632;51.018;4.284;2022-10-17T14:22:34;20.30;99.90
18998;DHT22;9632;51.018;4.284;2022-10-17T14:24:59;20.30;99.90
18998;DHT22;9632;51.018;4.284;2022-10-17T14:27:36;20.40;99.90
18998;DHT22;9632;51.018;4.284;2022-10-17T14:32:56;20.40;99.90
18998;DHT22;9632;51.018;4.284;2022-10-17T14:35:23;20.40;99.90
18998;DHT22;9632;51.018;4.284;2022-10-17T14:37:52;20.40;99.90
18998;DHT22;9632;51.018;4.284;2022-10-17T14:40:26;20.40;99.90
18998;DHT22;9632;51.018;4.284;2022-10-17T14:42:54;20.40;99.90
18998;DHT22;9632;51.018;4.284;2022-10-17T14:47:50;20.30;99.90
18998;DHT22;9632;51.018;4.284;2022-10-17T14:50:25;20.30;99.90
18998;DHT22;9632;51.018;4.284;2022-10-17T14:53:20;20.40;99.90
18998;DHT22;9632;51.018;4.284;2022-10-17T14:55:57;20.40;99.90
18998;DHT22;9632;51.018;4.284;2022-10-17T14:58:26;20.40;99.90
18998;DHT22;9632;51.018;4.284;2022-10-17T15:00:56;20.40;99.90
18998;DHT22;9632;51.018;4.284;2022-10-17T15:03:22;20.40;99.90
18998;DHT22;9632;51.018;4.284;2022-10-17T15:05:49;20.30;99.90
18998;DHT22;9632;51.018;4.284;2022-10-17T15:08:17;20.30;99.90
18998;DHT22;9632;51.018;4.284;2022-10-17T15:10:43;20.20;99.90
18998;DHT22;9632;51.018;4.284;2022-10-17T15:13:10;20.30;99.90
18998;DHT22;9632;51.018;4.284;2022-10-17T15:15:37;20.30;99.90
18998;DHT22;9632;51.018;4.284;2022-10-17T15:18:04;20.30;99.90
18998;DHT22;9632;51.018;4.284;2022-10-17T15:20:31;20.30;99.90
18998;DHT22;9632;51.018;4.284;2022-10-17T15:22:58;20.30;99.90
18998;DHT22;9632;51.018;4.284;2022-10-17T15:25:25;20.30;99.90
18998;DHT22;9632;51.018;4.284;2022-10-17T15:27:51;20.30;99.90
18998;DHT22;9632;51.018;4.284;2022-10-17T15:30:23;20.20;99.90
18998;DHT22;9632;51.018;4.284;2022-10-17T15:32:50;20.20;99.90
18998;DHT22;9632;51.018;4.284;2022-10-17T15:35:16;20.30;99.90
18998;DHT22;9632;51.018;4.284;2022-10-17T15:37:43;20.20;99.90
18998;DHT22;9632;51.018;4.284;2022-10-17T15:40:25;20.20;99.90
18998;DHT22;9632;51.018;4.284;2022-10-17T15:42:52;20.20;99.90
18998;DHT22;9632;51.018;4.284;2022-10-17T15:45:19;20.20;99.90
18998;DHT22;9632;51.018;4.284;2022-10-17T15:47:59;20.20;99.90
18998;DHT22;9632;51.018;4.284;2022-10-17T15:50:27;20.20;99.90
18998;DHT22;9632;51.018;4.284;2022-10-17T15:52:54;20.10;99.90
18998;DHT22;9632;51.018;4.284;2022-10-17T15:55:20;20.10;99.90
18998;DHT22;9632;51.018;4.284;2022-10-17T15:57:47;20.20;99.90
18998;DHT22;9632;51.018;4.284;2022-10-17T16:00:19;20.10;99.90
18998;DHT22;9632;51.018;4.284;2022-10-17T16:02:46;20.10;99.90
18998;DHT22;9632;51.018;4.284;2022-10-17T16:05:23;20.10;99.90
18998;DHT22;9632;51.018;4.284;2022-10-17T16:07:51;20.10;99.90
18998;DHT22;9632;51.018;4.284;2022-10-17T16:10:18;20.10;99.90
18998;DHT22;9632;51.018;4.284;2022-10-17T16:12:44;20.00;99.90
18998;DHT22;9632;51.018;4.284;2022-10-17T16:15:15;20.00;99.90
18998;DHT22;9632;51.018;4.284;2022-10-17T16:17:41;20.00;99.90
18998;DHT22;9632;51.018;4.284;2022-10-17T16:20:09;20.00;99.90
18998;DHT22;9632;51.018;4.284;2022-10-17T16:22:35;20.00;99.90
18998;DHT22;9632;51.018;4.284;2022-10-17T16:25:06;20.00;99.90
18998;DHT22;9632;51.018;4.284;2022-10-17T16:27:35;20.00;99.90
18998;DHT22;9632;51.018;4.284;2022-10-17T16:30:02;20.00;99.90
18998;DHT22;9632;51.018;4.284;2022-10-17T16:32:28;20.00;99.90
18998;DHT22;9632;51.018;4.284;2022-10-17T16:34:54;19.90;99.90
18998;DHT22;9632;51.018;4.284;2022-10-17T16:37:19;19.90;99.90
18998;DHT22;9632;51.018;4.284;2022-10-17T16:39:45;19.90;99.90
18998;DHT22;9632;51.018;4.284;2022-10-17T16:42:19;19.90;99.90
18998;DHT22;9632;51.018;4.284;2022-10-17T16:44:45;19.90;99.90
18998;DHT22;9632;51.018;4.284;2022-10-17T16:47:11;19.80;99.90
18998;DHT22;9632;51.018;4.284;2022-10-17T16:49:37;19.80;99.90
18998;DHT22;9632;51.018;4.284;2022-10-17T16:52:03;19.80;99.90
18998;DHT22;9632;51.018;4.284;2022-10-17T16:54:28;19.70;99.90
18998;DHT22;9632;51.018;4.284;2022-10-17T16:56:54;19.70;99.90
18998;DHT22;9632;51.018;4.284;2022-10-17T16:59:22;19.70;99.90
18998;DHT22;9632;51.018;4.284;2022-10-17T17:01:48;19.70;99.90
18998;DHT22;9632;51.018;4.284;2022-10-17T17:04:14;19.70;99.90
18998;DHT22;9632;51.018;4.284;2022-10-17T17:06:39;19.60;99.90
18998;DHT22;9632;51.018;4.284;2022-10-17T17:09:05;19.60;99.90
18998;DHT22;9632;51.018;4.284;2022-10-17T17:11:31;19.60;99.90
18998;DHT22;9632;51.018;4.284;2022-10-17T17:13:57;19.60;99.90
18998;DHT22;9632;51.018;4.284;2022-10-17T17:16:25;19.60;99.90
18998;DHT22;9632;51.018;4.284;2022-10-17T17:19:03;19.60;99.90
18998;DHT22;9632;51.018;4.284;2022-10-17T17:21:29;19.50;99.90
18998;DHT22;9632;51.018;4.284;2022-10-17T17:23:57;19.50;99.90
18998;DHT22;9632;51.018;4.284;2022-10-17T17:26:24;19.60;99.90
18998;DHT22;9632;51.018;4.284;2022-10-17T17:28:51;19.50;99.90
18998;DHT22;9632;51.018;4.284;2022-10-17T17:31:21;19.50;99.90
18998;DHT22;9632;51.018;4.284;2022-10-17T17:33:47;19.50;99.90
18998;DHT22;9632;51.018;4.284;2022-10-17T17:36:20;19.40;99.90
18998;DHT22;9632;51.018;4.284;2022-10-17T17:38:46;19.30;99.90
18998;DHT22;9632;51.018;4.284;2022-10-17T17:41:14;19.40;99.90
18998;DHT22;9632;51.018;4.284;2022-10-17T17:43:40;19.30;99.90
18998;DHT22;9632;51.018;4.284;2022-10-17T17:46:06;19.30;99.90
18998;DHT22;9632;51.018;4.284;2022-10-17T17:48:32;19.30;99.90
18998;DHT22;9632;51.018;4.284;2022-10-17T17:51:05;19.30;99.90
18998;DHT22;9632;51.018;4.284;2022-10-17T17:53:31;19.30;99.90
18998;DHT22;9632;51.018;4.284;2022-10-17T17:56:11;19.30;99.90
18998;DHT22;9632;51.018;4.284;2022-10-17T17:58:38;19.20;99.90
18998;DHT22;9632;51.018;4.284;2022-10-17T18:01:09;19.20;99.90
18998;DHT22;9632;51.018;4.284;2022-10-17T18:03:37;19.20;99.90
18998;DHT22;9632;51.018;4.284;2022-10-17T18:06:05;19.30;99.90